Time;durP1;ratioP1;P1;durP2;ratioP2;P2;SDS_P1;SDS_P2;PMS_P1;PMS_P2;Temp;Humidity;BMP_temperature;BMP_pressure;BME280_temperature;BME280_humidity;BME280_pressure;Samples;Min_cycle;Max_cycle;Signal;HPM_P1;HPM_P2
2023/12/13 00:02:00;;;;;;;;;;;;;;;2.86;71.86;93830.06;4960987;28;20090;-68
2023/12/13 00:04:25;;;;;;;;;;;;;;;3.61;69.63;93832.16;4960536;28;19972;-68
2023/12/13 00:06:50;;;;;;;;;;;;;;;3.97;68.81;93814.06;4960324;28;19922;-69
2023/12/13 00:09:16;;;;;;;;;;;;;;;3.38;70.80;93822.47;4958578;28;19926;-68
2023/12/13 00:11:41;;;;;;;;;;;;;;;3.71;68.84;93808.22;4959857;28;19934;-69
2023/12/13 00:14:07;;;;;;;;;;;;;;;3.87;68.77;93809.88;4960914;28;19961;-68
2023/12/13 00:16:32;;;;;;;;;;;;;;;3.96;67.96;93809.78;4956546;28;20024;-69
2023/12/13 00:18:57;;;;;;;;;;;;;;;4.29;67.67;93822.59;4959722;28;19929;-69
2023/12/13 00:21:23;;;;;;;;;;;;;;;4.25;67.39;93821.34;4963346;28;20348;-69
2023/12/13 00:23:48;;;;;;;;;;;;;;;3.53;69.72;93825.19;4959450;28;19922;-69
2023/12/13 00:26:14;;;;;;;;;;;;;;;3.10;71.04;93823.00;4962009;28;20504;-69
2023/12/13 00:28:40;;;;;;;;;;;;;;;2.79;71.86;93823.84;4959040;28;20071;-69
2023/12/13 00:31:05;;;;;;;;;;;;;;;2.21;74.24;93821.53;4959759;28;19931;-69
2023/12/13 00:33:32;;;;;;;;;;;;;;;2.01;75.60;93820.09;4959091;28;19957;-69
2023/12/13 00:35:58;;;;;;;;;;;;;;;2.50;74.85;93823.53;4963415;28;19948;-69
2023/12/13 00:38:23;;;;;;;;;;;;;;;2.75;74.07;93822.56;4959180;28;20427;-69
2023/12/13 00:40:48;;;;;;;;;;;;;;;3.44;71.13;93823.59;4959003;28;19968;-69
2023/12/13 00:43:13;;;;;;;;;;;;;;;3.34;70.82;93821.19;4962904;28;19925;-70
2023/12/13 00:45:39;;;;;;;;;;;;;;;3.79;69.11;93818.69;4959071;28;19922;-70
2023/12/13 00:48:04;;;;;;;;;;;;;;;3.85;68.45;93824.22;4959421;28;20568;-69
2023/12/13 00:50:30;;;;;;;;;;;;;;;3.64;67.79;93820.47;4959488;28;20000;-69
2023/12/13 00:52:55;;;;;;;;;;;;;;;3.63;68.27;93830.19;4959118;28;20380;-69
2023/12/13 00:55:20;;;;;;;;;;;;;;;2.97;69.31;93831.50;4987256;28;19938;-68
2023/12/13 00:57:45;;;;;;;;;;;;;;;3.35;67.83;93819.38;4958692;28;19929;-69
2023/12/13 01:00:11;;;;;;;;;;;;;;;3.18;68.25;93814.25;4959568;28;19926;-69
2023/12/13 01:02:37;;;;;;;;;;;;;;;3.21;67.76;93813.06;4973137;28;20441;-69
2023/12/13 01:05:02;;;;;;;;;;;;;;;3.43;66.13;93800.88;4958913;28;20787;-69
2023/12/13 01:07:27;;;;;;;;;;;;;;;4.10;64.74;93795.81;4958461;28;19933;-69
2023/12/13 01:09:53;;;;;;;;;;;;;;;3.27;65.78;93802.66;4957430;28;19918;-67
2023/12/13 01:12:18;;;;;;;;;;;;;;;3.57;63.94;93804.56;4958959;28;20525;-67
2023/12/13 01:14:43;;;;;;;;;;;;;;;3.88;63.20;93793.06;4958961;28;19926;-67
2023/12/13 01:17:10;;;;;;;;;;;;;;;3.94;63.37;93794.16;4958366;28;19956;-67
2023/12/13 01:19:36;;;;;;;;;;;;;;;4.27;62.28;93800.88;4956242;28;20484;-68
2023/12/13 01:22:01;;;;;;;;;;;;;;;4.77;60.51;93800.25;4958449;28;19923;-67
2023/12/13 01:24:26;;;;;;;;;;;;;;;4.85;60.24;93797.50;4958465;28;20545;-69
2023/12/13 01:26:51;;;;;;;;;;;;;;;4.77;60.06;93808.16;4958918;28;19926;-68
2023/12/13 01:29:18;;;;;;;;;;;;;;;3.92;62.19;93798.81;4957864;28;19930;-68
2023/12/13 01:31:43;;;;;;;;;;;;;;;4.66;61.40;93789.19;4958669;28;19985;-67
2023/12/13 01:34:08;;;;;;;;;;;;;;;5.13;59.50;93796.78;4958579;28;20320;-68
2023/12/13 01:36:39;;;;;;;;;;;;;;;5.26;59.13;93800.53;4958228;28;19993;-67
2023/12/13 01:39:04;;;;;;;;;;;;;;;5.19;59.08;93806.59;4958472;28;19972;-67
2023/12/13 01:41:29;;;;;;;;;;;;;;;5.09;59.88;93806.09;4958432;28;20045;-67
2023/12/13 01:43:55;;;;;;;;;;;;;;;5.13;59.62;93807.34;4958298;28;19977;-68
2023/12/13 01:46:20;;;;;;;;;;;;;;;5.37;59.18;93810.59;4958457;28;20114;-67
2023/12/13 01:48:45;;;;;;;;;;;;;;;5.06;60.13;93809.09;4957651;28;20180;-67
2023/12/13 01:51:11;;;;;;;;;;;;;;;4.70;61.92;93819.44;4958682;28;19961;-67
2023/12/13 01:53:37;;;;;;;;;;;;;;;3.93;64.30;93814.44;4957234;28;20308;-67
2023/12/13 01:56:02;;;;;;;;;;;;;;;3.98;65.64;93813.88;4970292;28;20112;-67
2023/12/13 01:58:28;;;;;;;;;;;;;;;4.37;63.76;93809.34;4958324;28;19929;-67
2023/12/13 02:00:53;;;;;;;;;;;;;;;4.79;62.32;93803.50;4957893;28;19926;-67
2023/12/13 02:03:19;;;;;;;;;;;;;;;4.27;64.01;93806.97;4988486;28;20623;-67
2023/12/13 02:05:44;;;;;;;;;;;;;;;3.79;65.13;93809.97;4958724;28;19929;-67
2023/12/13 02:08:09;;;;;;;;;;;;;;;3.98;64.59;93797.28;4951522;28;19923;-67
2023/12/13 02:10:35;;;;;;;;;;;;;;;4.14;63.96;93815.53;4957886;28;19922;-67
2023/12/13 02:13:00;;;;;;;;;;;;;;;3.97;65.23;93808.78;4958059;28;19984;-67
2023/12/13 02:15:25;;;;;;;;;;;;;;;4.76;62.56;93803.91;4988264;28;19949;-67
2023/12/13 02:17:54;;;;;;;;;;;;;;;4.87;60.92;93805.22;4988798;28;19925;-67
2023/12/13 02:20:19;;;;;;;;;;;;;;;5.29;60.15;93802.81;4957394;28;19933;-67
2023/12/13 02:22:45;;;;;;;;;;;;;;;5.28;59.71;93804.66;4957933;28;20296;-67
2023/12/13 02:25:18;;;;;;;;;;;;;;;5.35;59.59;93805.50;4957679;28;19961;-67
2023/12/13 02:27:43;;;;;;;;;;;;;;;4.99;60.65;93809.00;4988433;28;20645;-67
2023/12/13 02:30:09;;;;;;;;;;;;;;;4.91;60.66;93809.94;4972539;28;19921;-67
2023/12/13 02:32:34;;;;;;;;;;;;;;;4.93;60.30;93813.19;4957391;28;20407;-67
2023/12/13 02:34:59;;;;;;;;;;;;;;;4.96;60.29;93804.91;4957380;28;20046;-67
2023/12/13 02:37:25;;;;;;;;;;;;;;;4.61;60.76;93804.75;4957162;28;20485;-67
2023/12/13 02:39:50;;;;;;;;;;;;;;;4.85;60.93;93794.88;4957042;28;19972;-67
2023/12/13 02:42:15;;;;;;;;;;;;;;;5.20;59.81;93794.19;4957791;28;19922;-67
2023/12/13 02:44:43;;;;;;;;;;;;;;;5.39;58.62;93798.03;4957405;28;19977;-67
2023/12/13 02:47:08;;;;;;;;;;;;;;;5.03;58.68;93796.28;4958316;28;19922;-67
2023/12/13 02:49:33;;;;;;;;;;;;;;;5.27;58.68;93796.91;4956818;28;20625;-67
2023/12/13 02:51:59;;;;;;;;;;;;;;;5.02;58.52;93794.63;4957355;28;19926;-68
2023/12/13 02:54:24;;;;;;;;;;;;;;;4.75;60.98;93796.97;4954333;28;19987;-67
2023/12/13 02:56:49;;;;;;;;;;;;;;;5.38;58.37;93791.13;4957643;28;19933;-67
2023/12/13 02:59:14;;;;;;;;;;;;;;;5.46;57.81;93790.16;4956962;28;19922;-68
2023/12/13 03:01:40;;;;;;;;;;;;;;;5.27;58.73;93791.66;4958452;28;19996;-68
2023/12/13 03:04:05;;;;;;;;;;;;;;;4.80;59.75;93784.06;4957341;28;19922;-67
2023/12/13 03:06:30;;;;;;;;;;;;;;;4.68;60.22;93784.56;4957018;28;20033;-67
2023/12/13 03:08:55;;;;;;;;;;;;;;;4.40;61.02;93785.25;4955081;28;20113;-67
2023/12/13 03:11:21;;;;;;;;;;;;;;;5.16;59.07;93785.84;4956339;28;19969;-68
2023/12/13 03:13:46;;;;;;;;;;;;;;;5.31;58.27;93777.06;4957128;28;20136;-68
2023/12/13 03:16:11;;;;;;;;;;;;;;;5.10;58.02;93778.69;4956717;28;20169;-67
2023/12/13 03:18:37;;;;;;;;;;;;;;;5.60;57.52;93776.06;4956933;28;20003;-67
2023/12/13 03:21:02;;;;;;;;;;;;;;;5.61;57.38;93771.59;4958011;28;19934;-68
2023/12/13 03:23:27;;;;;;;;;;;;;;;5.79;56.93;93786.16;4957616;28;19964;-67
2023/12/13 03:25:52;;;;;;;;;;;;;;;5.69;57.13;93768.84;4958142;28;19932;-67
2023/12/13 03:28:18;;;;;;;;;;;;;;;5.59;57.03;93763.88;4960618;28;19961;-67
2023/12/13 03:30:43;;;;;;;;;;;;;;;5.65;57.13;93767.59;4961492;28;20148;-68
2023/12/13 03:33:08;;;;;;;;;;;;;;;5.14;57.95;93771.22;4960748;28;20458;-68
2023/12/13 03:35:34;;;;;;;;;;;;;;;3.62;63.95;93764.56;4961300;28;19926;-69
2023/12/13 03:37:59;;;;;;;;;;;;;;;4.75;60.10;93760.06;4959249;28;20441;-69
2023/12/13 03:40:24;;;;;;;;;;;;;;;5.01;60.22;93758.69;4960552;28;19922;-68
2023/12/13 03:42:50;;;;;;;;;;;;;;;5.45;58.18;93752.38;4960874;28;19962;-69
2023/12/13 03:45:15;;;;;;;;;;;;;;;3.94;63.35;93752.03;4959622;28;20315;-70
2023/12/13 03:47:40;;;;;;;;;;;;;;;4.54;61.56;93751.13;4960071;28;20049;-69
2023/12/13 03:50:06;;;;;;;;;;;;;;;5.52;58.43;93757.75;4960110;28;19941;-68
2023/12/13 03:52:31;;;;;;;;;;;;;;;4.41;61.21;93755.25;4959777;28;19930;-69
2023/12/13 03:54:56;;;;;;;;;;;;;;;5.37;58.90;93749.09;4957362;28;19926;-68
2023/12/13 03:57:21;;;;;;;;;;;;;;;5.49;58.49;93755.47;4959916;28;19932;-69
2023/12/13 03:59:47;;;;;;;;;;;;;;;5.55;58.32;93757.34;4960069;28;19929;-69
2023/12/13 04:02:12;;;;;;;;;;;;;;;5.64;57.98;93760.66;4959547;28;19937;-68
2023/12/13 04:04:37;;;;;;;;;;;;;;;5.48;58.49;93757.28;4959693;28;19922;-69
2023/12/13 04:07:05;;;;;;;;;;;;;;;5.43;58.77;93753.59;4960032;28;19933;-68
2023/12/13 04:09:30;;;;;;;;;;;;;;;5.43;58.82;93748.31;4957758;28;20499;-69
2023/12/13 04:11:56;;;;;;;;;;;;;;;5.32;59.09;93750.50;4959522;28;19926;-68
2023/12/13 04:14:22;;;;;;;;;;;;;;;4.77;60.26;93751.00;4960281;28;19996;-69
2023/12/13 04:16:47;;;;;;;;;;;;;;;3.15;65.45;93760.19;4959755;28;19968;-68
2023/12/13 04:19:13;;;;;;;;;;;;;;;4.94;60.89;93746.25;4959391;28;19930;-68
2023/12/13 04:21:38;;;;;;;;;;;;;;;5.27;59.62;93741.50;4958131;28;19926;-69
2023/12/13 04:24:04;;;;;;;;;;;;;;;5.60;58.67;93749.66;4959135;28;19922;-68
2023/12/13 04:26:29;;;;;;;;;;;;;;;5.20;59.96;93744.91;4959785;28;19997;-68
2023/12/13 04:28:54;;;;;;;;;;;;;;;5.31;58.49;93738.28;4959578;28;20021;-69
2023/12/13 04:31:20;;;;;;;;;;;;;;;4.99;60.26;93743.06;4959063;28;20496;-69
2023/12/13 04:33:45;;;;;;;;;;;;;;;5.31;59.14;93740.13;4959377;28;20462;-69
2023/12/13 04:36:10;;;;;;;;;;;;;;;5.47;58.21;93745.13;4956294;28;19926;-69
2023/12/13 04:38:35;;;;;;;;;;;;;;;4.42;61.52;93748.97;4954503;28;19928;-68
2023/12/13 04:41:01;;;;;;;;;;;;;;;4.10;63.11;93737.03;4959031;28;19965;-67
2023/12/13 04:43:26;;;;;;;;;;;;;;;4.78;60.75;93743.88;4959685;28;19926;-67
2023/12/13 04:45:51;;;;;;;;;;;;;;;4.83;60.77;93737.03;4959312;28;20014;-67
2023/12/13 04:48:16;;;;;;;;;;;;;;;4.50;60.81;93736.69;4959050;28;19926;-67
2023/12/13 04:50:42;;;;;;;;;;;;;;;4.93;60.13;93730.66;4959151;28;19972;-67
2023/12/13 04:53:07;;;;;;;;;;;;;;;5.14;59.65;93731.66;4958670;28;20020;-67
2023/12/13 04:55:33;;;;;;;;;;;;;;;5.28;58.91;93729.94;4958530;28;19933;-67
2023/12/13 04:57:58;;;;;;;;;;;;;;;4.86;59.09;93732.41;4961018;28;20463;-67
2023/12/13 05:00:23;;;;;;;;;;;;;;;4.95;59.42;93726.81;4957150;28;19926;-67
2023/12/13 05:02:48;;;;;;;;;;;;;;;4.24;61.33;93728.31;4958064;28;19933;-67
2023/12/13 05:05:14;;;;;;;;;;;;;;;3.48;63.61;93734.59;4958814;28;19922;-67
2023/12/13 05:07:39;;;;;;;;;;;;;;;5.09;59.91;93730.41;4958739;28;20485;-67
2023/12/13 05:10:05;;;;;;;;;;;;;;;5.69;58.45;93731.88;4956612;28;19953;-67
2023/12/13 05:12:30;;;;;;;;;;;;;;;5.83;56.98;93729.28;4958922;28;19926;-67
2023/12/13 05:14:55;;;;;;;;;;;;;;;5.90;56.60;93732.78;4958741;28;19980;-67
2023/12/13 05:17:21;;;;;;;;;;;;;;;6.01;56.51;93723.47;4958251;28;19980;-67
2023/12/13 05:19:46;;;;;;;;;;;;;;;5.41;58.30;93734.50;4963122;28;19969;-67
2023/12/13 05:22:11;;;;;;;;;;;;;;;4.79;60.01;93727.88;4958731;28;20383;-67
2023/12/13 05:24:36;;;;;;;;;;;;;;;4.84;59.62;93727.31;4959039;28;19960;-67
2023/12/13 05:27:02;;;;;;;;;;;;;;;4.86;59.43;93732.41;4958587;28;20021;-68
2023/12/13 05:29:27;;;;;;;;;;;;;;;4.71;60.12;93725.38;4958102;28;19938;-67
2023/12/13 05:31:52;;;;;;;;;;;;;;;5.09;59.97;93730.41;4957903;28;19926;-68
2023/12/13 05:34:17;;;;;;;;;;;;;;;5.45;59.19;93727.84;4958270;28;20311;-67
2023/12/13 05:36:43;;;;;;;;;;;;;;;5.53;58.61;93724.22;4954129;28;20376;-68
2023/12/13 05:39:08;;;;;;;;;;;;;;;5.61;58.00;93724.06;4958301;28;20567;-67
2023/12/13 05:41:33;;;;;;;;;;;;;;;5.86;57.64;93726.25;4958423;28;19922;-68
2023/12/13 05:43:58;;;;;;;;;;;;;;;5.69;57.35;93713.38;4957448;28;19949;-67
2023/12/13 05:46:24;;;;;;;;;;;;;;;6.03;57.03;93707.44;4958201;28;20001;-67
2023/12/13 05:48:49;;;;;;;;;;;;;;;6.24;56.74;93706.50;4956969;28;19937;-67
2023/12/13 05:51:14;;;;;;;;;;;;;;;6.04;56.58;93707.25;4988794;28;20033;-67
2023/12/13 05:53:39;;;;;;;;;;;;;;;6.37;56.45;93703.91;4957041;28;19937;-67
2023/12/13 05:56:05;;;;;;;;;;;;;;;6.42;56.24;93707.81;4957922;28;19930;-67
2023/12/13 05:58:30;;;;;;;;;;;;;;;6.30;55.18;93710.19;4957963;28;19972;-67
2023/12/13 06:00:56;;;;;;;;;;;;;;;6.28;55.61;93709.56;4957951;28;20080;-67
2023/12/13 06:03:22;;;;;;;;;;;;;;;6.54;54.91;93716.81;4957381;28;20724;-67
2023/12/13 06:05:47;;;;;;;;;;;;;;;6.22;54.95;93719.91;4957760;28;19932;-67
2023/12/13 06:08:12;;;;;;;;;;;;;;;5.74;57.28;93715.41;4954458;28;19935;-67
2023/12/13 06:10:38;;;;;;;;;;;;;;;5.24;58.81;93721.59;4957917;28;19926;-68
2023/12/13 06:13:03;;;;;;;;;;;;;;;5.66;58.04;93718.22;4956431;28;19926;-68
2023/12/13 06:15:29;;;;;;;;;;;;;;;5.83;56.64;93722.19;4956714;28;19926;-67
2023/12/13 06:17:54;;;;;;;;;;;;;;;5.58;58.55;93720.00;4958008;28;19977;-67
2023/12/13 06:20:19;;;;;;;;;;;;;;;5.91;57.35;93721.19;4956223;28;19981;-67
2023/12/13 06:22:45;;;;;;;;;;;;;;;5.89;56.90;93731.16;4957087;28;20039;-67
2023/12/13 06:25:10;;;;;;;;;;;;;;;5.42;57.63;93725.56;4957035;28;20423;-67
2023/12/13 06:27:35;;;;;;;;;;;;;;;4.57;60.93;93734.97;4957439;28;20077;-67
2023/12/13 06:30:00;;;;;;;;;;;;;;;5.31;59.93;93721.66;4957190;28;19952;-67
2023/12/13 06:32:26;;;;;;;;;;;;;;;5.58;58.41;93720.00;4957414;28;19969;-67
2023/12/13 06:34:51;;;;;;;;;;;;;;;5.88;57.63;93718.16;4957243;28;19930;-67
2023/12/13 06:37:16;;;;;;;;;;;;;;;5.41;57.46;93716.84;4956864;28;20016;-68
2023/12/13 06:39:42;;;;;;;;;;;;;;;5.71;57.88;93718.44;4957075;28;20249;-67
2023/12/13 06:42:09;;;;;;;;;;;;;;;5.92;57.22;93711.47;4957735;28;19944;-67
2023/12/13 06:44:35;;;;;;;;;;;;;;;5.95;56.44;93708.44;4956822;28;20597;-67
2023/12/13 06:47:00;;;;;;;;;;;;;;;5.77;56.99;93707.13;4957043;28;19929;-67
2023/12/13 06:49:30;;;;;;;;;;;;;;;5.40;58.26;93709.94;4956262;28;19930;-67
2023/12/13 06:51:56;;;;;;;;;;;;;;;5.05;58.60;93704.56;4955537;28;19933;-67
2023/12/13 06:54:21;;;;;;;;;;;;;;;5.32;59.71;93703.00;4956890;28;19922;-67
2023/12/13 06:56:46;;;;;;;;;;;;;;;5.98;56.69;93694.81;4956734;28;19926;-67
2023/12/13 06:59:11;;;;;;;;;;;;;;;6.04;57.47;93695.84;4956812;28;20311;-68
2023/12/13 07:01:37;;;;;;;;;;;;;;;6.09;56.13;93694.25;4956537;28;19965;-68
2023/12/13 07:04:02;;;;;;;;;;;;;;;5.92;56.71;93699.06;4956303;28;19930;-68
2023/12/13 07:06:27;;;;;;;;;;;;;;;5.87;56.41;93704.13;4957253;28;19985;-68
2023/12/13 07:08:53;;;;;;;;;;;;;;;6.09;57.12;93693.47;4952402;28;19969;-67
2023/12/13 07:11:18;;;;;;;;;;;;;;;6.32;56.59;93694.97;4956938;28;19933;-68
2023/12/13 07:13:43;;;;;;;;;;;;;;;6.43;56.31;93694.38;4956544;28;19937;-67
2023/12/13 07:16:09;;;;;;;;;;;;;;;6.46;56.25;93693.97;4956838;28;19926;-68
2023/12/13 07:18:34;;;;;;;;;;;;;;;6.40;55.25;93694.78;4954948;28;19918;-67
2023/12/13 07:20:59;;;;;;;;;;;;;;;6.32;55.31;93697.59;4955800;28;19926;-68
2023/12/13 07:23:25;;;;;;;;;;;;;;;6.43;55.87;93704.13;4955792;28;20403;-68
2023/12/13 07:25:50;;;;;;;;;;;;;;;5.89;56.38;93693.34;4956495;28;19926;-68
2023/12/13 07:28:16;;;;;;;;;;;;;;;6.05;55.79;93703.59;4956121;28;19933;-67
2023/12/13 07:30:41;;;;;;;;;;;;;;;5.99;57.44;93699.09;4956900;28;20012;-68
2023/12/13 07:33:08;;;;;;;;;;;;;;;5.76;57.78;93704.66;4955733;28;19933;-68
2023/12/13 07:35:34;;;;;;;;;;;;;;;6.22;57.05;93705.88;4953657;28;19925;-67
2023/12/13 07:37:59;;;;;;;;;;;;;;;5.74;56.64;93710.97;4955076;28;20812;-67
2023/12/13 07:40:24;;;;;;;;;;;;;;;6.24;56.92;93709.16;4956108;28;19970;-68
2023/12/13 07:42:49;;;;;;;;;;;;;;;6.37;55.54;93708.41;4956542;28;19965;-68
2023/12/13 07:45:16;;;;;;;;;;;;;;;6.11;55.93;93704.63;4956281;28;19930;-68
2023/12/13 07:47:41;;;;;;;;;;;;;;;6.35;55.79;93708.59;4956170;28;19997;-67
2023/12/13 07:50:08;;;;;;;;;;;;;;;6.39;56.01;93714.28;4953682;28;19957;-65
2023/12/13 07:52:33;;;;;;;;;;;;;;;6.55;55.26;93709.69;4954870;28;19930;-67
2023/12/13 07:54:59;;;;;;;;;;;;;;;6.63;55.33;93710.31;4954931;28;19938;-67
2023/12/13 07:57:24;;;;;;;;;;;;;;;6.68;55.51;93714.19;4953775;28;20244;-67
2023/12/13 07:59:50;;;;;;;;;;;;;;;6.75;54.78;93713.19;4958234;28;20016;-65
2023/12/13 08:02:15;;;;;;;;;;;;;;;6.88;53.85;93716.88;4955990;28;19926;-68
2023/12/13 08:04:41;;;;;;;;;;;;;;;6.82;54.07;93718.50;4951576;28;19937;-66
2023/12/13 08:07:06;;;;;;;;;;;;;;;4.90;58.28;93723.09;4955955;28;19977;-66
2023/12/13 08:09:31;;;;;;;;;;;;;;;5.67;58.20;93710.09;4952842;28;19934;-68
2023/12/13 08:11:57;;;;;;;;;;;;;;;6.05;56.75;93716.78;4956455;28;20069;-66
2023/12/13 08:14:25;;;;;;;;;;;;;;;6.29;56.11;93724.44;4957495;28;20016;-66
2023/12/13 08:16:50;;;;;;;;;;;;;;;6.12;55.59;93717.66;4956792;28;19949;-67
2023/12/13 08:19:16;;;;;;;;;;;;;;;6.34;56.21;93719.34;4958747;28;20580;-68
2023/12/13 08:21:41;;;;;;;;;;;;;;;6.55;54.71;93720.25;4959187;28;19968;-68
2023/12/13 08:24:12;;;;;;;;;;;;;;;6.66;54.74;93722.31;4959196;28;20150;-68
2023/12/13 08:26:38;;;;;;;;;;;;;;;6.85;54.58;93717.28;4960207;28;19922;-66
2023/12/13 08:29:03;;;;;;;;;;;;;;;6.97;53.92;93723.59;4959228;28;19980;-68
2023/12/13 08:31:28;;;;;;;;;;;;;;;7.00;53.90;93722.38;4959045;28;20649;-67
2023/12/13 08:33:54;;;;;;;;;;;;;;;7.11;54.27;93720.97;4959412;28;20738;-66
2023/12/13 08:36:19;;;;;;;;;;;;;;;7.19;53.81;93717.31;4954686;28;19929;-68
2023/12/13 08:38:45;;;;;;;;;;;;;;;7.30;53.66;93721.97;4959650;28;19926;-67
2023/12/13 08:41:13;;;;;;;;;;;;;;;7.43;53.25;93713.22;4958750;28;19967;-68
2023/12/13 08:43:38;;;;;;;;;;;;;;;7.52;52.65;93717.28;4959137;28;19930;-68
2023/12/13 08:46:04;;;;;;;;;;;;;;;7.61;52.51;93712.59;4959386;28;19969;-67
2023/12/13 08:48:30;;;;;;;;;;;;;;;7.60;51.85;93712.78;4958554;28;19933;-68
2023/12/13 08:50:55;;;;;;;;;;;;;;;7.66;52.04;93720.72;4959217;28;19930;-68
2023/12/13 08:53:21;;;;;;;;;;;;;;;7.69;52.16;93716.03;4957545;28;19964;-68
2023/12/13 08:55:46;;;;;;;;;;;;;;;7.38;51.07;93726.28;4957302;28;20344;-67
2023/12/13 08:58:13;;;;;;;;;;;;;;;7.37;53.08;93725.44;4957752;28;19926;-67
2023/12/13 09:00:38;;;;;;;;;;;;;;;7.60;52.41;93718.09;4958541;28;19926;-67
2023/12/13 09:03:03;;;;;;;;;;;;;;;7.61;52.16;93711.75;4958497;28;20507;-68
2023/12/13 09:05:28;;;;;;;;;;;;;;;7.63;52.36;93713.22;4957996;28;19932;-68
2023/12/13 09:07:54;;;;;;;;;;;;;;;7.22;53.43;93712.44;4957205;28;19936;-68
2023/12/13 09:10:20;;;;;;;;;;;;;;;7.46;52.79;93718.13;4957028;28;19927;-68
2023/12/13 09:12:46;;;;;;;;;;;;;;;7.66;52.72;93717.28;4957570;28;19925;-68
2023/12/13 09:15:11;;;;;;;;;;;;;;;7.75;52.06;93715.22;4958469;28;19938;-68
2023/12/13 09:17:37;;;;;;;;;;;;;;;7.82;52.04;93718.69;4958025;28;19930;-68
2023/12/13 09:20:02;;;;;;;;;;;;;;;7.83;51.76;93714.22;4958343;28;19933;-67
2023/12/13 09:22:27;;;;;;;;;;;;;;;7.77;51.93;93715.84;4958927;28;20583;-67
2023/12/13 09:24:53;;;;;;;;;;;;;;;7.71;50.99;93727.22;4955440;28;19926;-67
2023/12/13 09:27:18;;;;;;;;;;;;;;;7.36;52.24;93739.72;4958520;28;19929;-67
2023/12/13 09:29:44;;;;;;;;;;;;;;;7.17;51.31;93741.31;4957682;28;19926;-68
2023/12/13 09:32:09;;;;;;;;;;;;;;;6.84;52.45;93742.91;4987300;28;19933;-68
2023/12/13 09:34:35;;;;;;;;;;;;;;;5.03;57.92;93752.22;4956226;28;19926;-67
2023/12/13 09:37:00;;;;;;;;;;;;;;;6.53;54.16;93746.09;4953780;28;19926;-67
2023/12/13 09:39:25;;;;;;;;;;;;;;;6.15;54.81;93750.78;4956816;28;19956;-67
2023/12/13 09:41:57;;;;;;;;;;;;;;;5.60;55.66;93754.94;4958207;28;20036;-67
2023/12/13 09:44:23;;;;;;;;;;;;;;;5.37;57.87;93754.38;4956919;28;20443;-67
2023/12/13 09:46:50;;;;;;;;;;;;;;;6.15;55.65;93760.56;4987428;28;19918;-67
2023/12/13 09:49:15;;;;;;;;;;;;;;;5.76;56.31;93752.19;4957094;28;19930;-68
2023/12/13 09:51:41;;;;;;;;;;;;;;;4.44;58.16;93761.97;4957706;28;20355;-68
2023/12/13 09:54:06;;;;;;;;;;;;;;;4.09;60.56;93769.66;4985257;28;19969;-67
2023/12/13 09:56:31;;;;;;;;;;;;;;;4.87;58.30;93763.88;4971540;28;19926;-67
2023/12/13 09:58:57;;;;;;;;;;;;;;;4.34;59.64;93767.53;4956715;28;19944;-67
2023/12/13 10:01:22;;;;;;;;;;;;;;;5.31;57.30;93772.59;4956972;28;20300;-67
2023/12/13 10:03:47;;;;;;;;;;;;;;;4.76;56.27;93774.91;4955595;28;19964;-67
2023/12/13 10:06:13;;;;;;;;;;;;;;;5.28;55.65;93778.25;4956683;28;19926;-68
2023/12/13 10:08:38;;;;;;;;;;;;;;;4.79;57.17;93769.22;4955952;28;20388;-67
2023/12/13 10:11:04;;;;;;;;;;;;;;;3.97;59.66;93772.75;4956986;28;20024;-67
2023/12/13 10:13:29;;;;;;;;;;;;;;;4.25;59.82;93779.19;4952485;28;19930;-67
2023/12/13 10:15:55;;;;;;;;;;;;;;;4.83;56.89;93770.53;4957412;28;19937;-67
2023/12/13 10:18:20;;;;;;;;;;;;;;;3.45;59.92;93784.94;4958176;28;19926;-67
2023/12/13 10:20:46;;;;;;;;;;;;;;;3.77;60.29;93780.34;4956776;28;19941;-67
2023/12/13 10:23:11;;;;;;;;;;;;;;;4.86;56.79;93780.66;4955663;28;20028;-67
2023/12/13 10:25:36;;;;;;;;;;;;;;;4.75;57.09;93763.53;4970556;28;20284;-67
2023/12/13 10:28:02;;;;;;;;;;;;;;;5.16;55.71;93764.75;4956938;28;19930;-67
2023/12/13 10:30:28;;;;;;;;;;;;;;;5.35;55.82;93773.84;4958505;28;19921;-67
2023/12/13 10:32:53;;;;;;;;;;;;;;;5.47;54.75;93779.41;4955128;28;20296;-69
2023/12/13 10:35:21;;;;;;;;;;;;;;;5.42;54.69;93770.44;4954245;28;20016;-69
2023/12/13 10:37:46;;;;;;;;;;;;;;;5.84;54.22;93771.34;4956650;28;19922;-68
2023/12/13 10:40:17;;;;;;;;;;;;;;;5.92;51.87;93772.22;4969415;28;19926;-68
2023/12/13 10:42:44;;;;;;;;;;;;;;;6.14;52.53;93770.28;4953665;28;20485;-69
2023/12/13 10:45:10;;;;;;;;;;;;;;;6.28;50.92;93773.00;4955457;28;20542;-68
2023/12/13 10:47:35;;;;;;;;;;;;;;;6.25;52.32;93766.28;4951744;28;19926;-68
2023/12/13 10:50:00;;;;;;;;;;;;;;;6.35;51.38;93771.19;4956188;28;20348;-68
2023/12/13 10:52:26;;;;;;;;;;;;;;;6.61;52.71;93773.19;4949722;28;20517;-68
2023/12/13 10:54:52;;;;;;;;;;;;;;;6.80;49.45;93767.31;4954727;28;19937;-68
2023/12/13 10:57:17;;;;;;;;;;;;;;;6.82;50.02;93767.94;4955362;28;19934;-68
2023/12/13 10:59:42;;;;;;;;;;;;;;;7.24;49.60;93755.38;4956137;28;19937;-69
2023/12/13 11:02:08;;;;;;;;;;;;;;;6.82;48.09;93754.69;4956962;28;20392;-69
2023/12/13 11:04:34;;;;;;;;;;;;;;;7.36;48.63;93754.78;4956791;28;19926;-69
2023/12/13 11:07:01;;;;;;;;;;;;;;;7.73;50.90;93739.28;4970984;28;19922;-69
2023/12/13 11:09:28;;;;;;;;;;;;;;;8.08;49.38;93747.97;4968042;28;19926;-69
2023/12/13 11:11:53;;;;;;;;;;;;;;;8.57;47.88;93746.56;4954890;28;19965;-69
2023/12/13 11:14:20;;;;;;;;;;;;;;;8.53;45.26;93747.19;4955918;28;20710;-68
2023/12/13 11:16:45;;;;;;;;;;;;;;;7.33;46.73;93750.69;4956458;28;19926;-68
2023/12/13 11:19:12;;;;;;;;;;;;;;;8.22;46.45;93743.44;4952916;28;20490;-68
2023/12/13 11:21:37;;;;;;;;;;;;;;;7.73;47.13;93744.56;4954067;28;20508;-68
2023/12/13 11:24:10;;;;;;;;;;;;;;;7.91;45.72;93740.47;4956480;28;19930;-69
2023/12/13 11:26:39;;;;;;;;;;;;;;;7.92;46.44;93742.09;4956529;28;19925;-69
2023/12/13 11:29:11;;;;;;;;;;;;;;;8.12;46.58;93738.59;4955579;28;19930;-69
2023/12/13 11:31:37;;;;;;;;;;;;;;;8.24;45.16;93744.91;4954945;28;19982;-69
2023/12/13 11:34:04;;;;;;;;;;;;;;;8.52;44.36;93742.94;4954501;28;20002;-69
2023/12/13 11:36:33;;;;;;;;;;;;;;;8.28;44.95;93746.09;4959409;28;20045;-69
2023/12/13 11:38:59;;;;;;;;;;;;;;;8.07;46.44;93747.19;4955933;28;20392;-68
2023/12/13 11:41:24;;;;;;;;;;;;;;;7.91;46.57;93751.09;4953252;28;20002;-69
2023/12/13 11:43:50;;;;;;;;;;;;;;;6.86;48.79;93756.75;4951638;28;19990;-69
2023/12/13 11:46:15;;;;;;;;;;;;;;;7.76;47.57;93749.44;4955998;28;20009;-69
2023/12/13 11:48:43;;;;;;;;;;;;;;;8.19;45.60;93747.34;4956645;28;20565;-69
2023/12/13 11:51:09;;;;;;;;;;;;;;;8.35;45.55;93743.41;4957776;28;19926;-69
2023/12/13 11:53:34;;;;;;;;;;;;;;;7.61;45.97;93746.19;4959544;28;20036;-69
2023/12/13 11:55:59;;;;;;;;;;;;;;;7.71;47.43;93746.59;4958139;28;20405;-69
2023/12/13 11:58:28;;;;;;;;;;;;;;;8.04;47.64;93745.78;4960266;28;19922;-69
2023/12/13 12:00:53;;;;;;;;;;;;;;;8.63;47.45;93741.44;4959268;28;19926;-69
2023/12/13 12:03:18;;;;;;;;;;;;;;;8.86;47.11;93750.72;4957279;28;20399;-70
2023/12/13 12:05:43;;;;;;;;;;;;;;;9.16;46.20;93744.84;4959421;28;19914;-69
2023/12/13 12:08:11;;;;;;;;;;;;;;;8.66;45.53;93751.63;4958841;28;19982;-69
2023/12/13 12:10:37;;;;;;;;;;;;;;;7.41;48.80;93754.97;4962993;28;19981;-69
2023/12/13 12:13:02;;;;;;;;;;;;;;;10.91;43.48;93752.13;4955510;28;19930;-69
2023/12/13 12:15:27;;;;;;;;;;;;;;;13.19;40.05;93748.31;4956705;28;20020;-69
2023/12/13 12:17:54;;;;;;;;;;;;;;;15.44;32.89;93742.97;4955140;28;19932;-69
2023/12/13 12:20:19;;;;;;;;;;;;;;;13.75;34.28;93744.97;4956892;28;19930;-69
2023/12/13 12:22:46;;;;;;;;;;;;;;;13.09;36.46;93746.28;4956932;28;20544;-69
2023/12/13 12:25:11;;;;;;;;;;;;;;;12.48;37.23;93741.38;4955892;28;19937;-69
2023/12/13 12:27:38;;;;;;;;;;;;;;;12.19;38.22;93752.78;4956928;28;19929;-68
2023/12/13 12:30:03;;;;;;;;;;;;;;;13.51;35.49;93741.63;4956429;28;19926;-69
2023/12/13 12:32:29;;;;;;;;;;;;;;;12.70;37.24;93743.38;4954947;28;19927;-69
2023/12/13 12:34:54;;;;;;;;;;;;;;;12.39;38.84;93743.59;4957372;28;19980;-69
2023/12/13 12:37:19;;;;;;;;;;;;;;;10.90;40.93;93751.28;4971498;28;19976;-69
2023/12/13 12:39:45;;;;;;;;;;;;;;;10.77;41.55;93746.97;4955187;28;20458;-69
2023/12/13 12:42:10;;;;;;;;;;;;;;;9.85;42.66;93752.88;4955864;28;19926;-68
2023/12/13 12:44:35;;;;;;;;;;;;;;;10.18;42.72;93750.94;4955177;28;20056;-69
2023/12/13 12:47:00;;;;;;;;;;;;;;;9.96;42.96;93747.84;4956737;28;20150;-68
2023/12/13 12:49:26;;;;;;;;;;;;;;;9.41;44.23;93750.19;4956047;28;20024;-69